Chincoteague, VA

1:16 AM EST on March 02, 2015 (GMT -0500)
KVACHINC2 | Change Station
CLOSE
Current Station
Personal Weather Station
Location: Chincoteague Island, VA
Elevation: 35 ft
Nearby Weather Stations
Active Advisory: Special Statement Active Notice: Public Information Statement

Elev 35 ft 37.92 °N, 75.36 °W | Updated 4 seconds ago

Fog
Fog
32.0 °F
Feels Like 23 °F
N
12.0
Wind Variable Wind from SW
Gusts 14.0 mph

Today
High -- | Low -- °F
--% Chance of Precip.
Yesterday
High -- | Low -- °F
Precip. -- in
6:32 AM 5:55 PM
Waxing Gibbous, 89% visible
Pressure 30.16 in
Visibility 1.8 miles
Clouds Overcast 200 ft
Windchill 23 °F
Dew Point 32 °F
Humidity 100%
Rainfall 0.00 in
Snow Depth Not available.
UV 0 out of 12
Pollen .50 out of 12
Air Quality Not available.
Flu Activity Not available.
SPECI KWAL 020613Z AUTO 25007KT 1 3/4SM BR OVC002 00/00 A3016 RMK AO2 T00000000

More Conditions Fewer Conditions

Pressure 30.16 in
Visibility 1.8 miles
Clouds Overcast 200 ft
Windchill 23 °F
Dew Point 32 °F
Humidity 100%
Rainfall 0.00 in
Snow Depth Not available.
UV 0 out of 12
Pollen .50 out of 12
Air Quality Not available.
Flu Activity Not available.
SPECI KWAL 020613Z AUTO 25007KT 1 3/4SM BR OVC002 00/00 A3016 RMK AO2 T00000000

More Conditions Fewer Conditions

10-Day Weather Forecast

Almanac

Astronomy

Mar. 02, 2015 Rise Set
Actual Time
Civil Twilight
Nautical Twilight
Astronomical Twilight
Moon
Length of Visible Light
Length of Day
Tomorrow will be .
, % of the Moon is Illuminated

Today's Extremes

State Highs State Lows

Community

WunderPhotos

Upload Photos

1,801,738 photos uploaded!

WunderBlogs® & News

Nearby

Air Quality

  Air Quality AQ Index Pollutant
Not available.

Snow Depth

Station Depth Elevation

Earthquake Activity

City Distance Mag. Time & Date
Minimum magnitude displayed is 2.5.

Coastal Water Temperatures

Place Temperature

Nearby Weather Stations

Special Statement
Statement as of 10:28 PM EST on March 01, 2015

... Patchy icy conditions persist overnight...

Areas of black ice will be possible on untreated surfaces overnight
across the lower Eastern Shore... and Northern Neck. Temperatures
are expected to remain nearly steady or slowly rise through 4 am.
Temperatures may hover around freezing in some sheltered
locations... even as most areas stay just above freezing. Please
use extra caution if traveling and be prepared for icy patches on
roadways... primarily on bridges and overpasses.